sensor_id;sensor_type;location;lat;lon;timestamp;P1;durP1;ratioP1;P2;durP2;ratioP2
40827;SDS011;26549;50.918;5.338;2022-08-19T00:01:41;14.07;;;11.60;;
40827;SDS011;26549;50.918;5.338;2022-08-19T00:04:09;13.55;;;12.05;;
40827;SDS011;26549;50.918;5.338;2022-08-19T00:06:37;14.23;;;12.77;;
40827;SDS011;26549;50.918;5.338;2022-08-19T00:09:04;14.70;;;12.70;;
40827;SDS011;26549;50.918;5.338;2022-08-19T00:11:31;15.70;;;13.00;;
40827;SDS011;26549;50.918;5.338;2022-08-19T00:13:58;21.98;;;14.02;;
40827;SDS011;26549;50.918;5.338;2022-08-19T00:16:24;14.68;;;12.73;;
40827;SDS011;26549;50.918;5.338;2022-08-19T00:18:51;14.60;;;13.20;;
40827;SDS011;26549;50.918;5.338;2022-08-19T00:21:16;15.55;;;13.75;;
40827;SDS011;26549;50.918;5.338;2022-08-19T00:23:43;15.90;;;13.32;;
40827;SDS011;26549;50.918;5.338;2022-08-19T00:26:09;16.90;;;14.05;;
40827;SDS011;26549;50.918;5.338;2022-08-19T00:28:36;16.48;;;13.38;;
40827;SDS011;26549;50.918;5.338;2022-08-19T00:31:02;14.07;;;12.57;;
40827;SDS011;26549;50.918;5.338;2022-08-19T00:33:31;14.90;;;13.30;;
40827;SDS011;26549;50.918;5.338;2022-08-19T00:35:58;13.95;;;12.48;;
40827;SDS011;26549;50.918;5.338;2022-08-19T00:38:25;16.48;;;12.25;;
40827;SDS011;26549;50.918;5.338;2022-08-19T00:40:51;16.90;;;12.82;;
40827;SDS011;26549;50.918;5.338;2022-08-19T00:43:21;15.18;;;12.85;;
40827;SDS011;26549;50.918;5.338;2022-08-19T00:45:49;13.48;;;12.05;;
40827;SDS011;26549;50.918;5.338;2022-08-19T00:48:16;16.95;;;12.95;;
40827;SDS011;26549;50.918;5.338;2022-08-19T00:50:43;13.70;;;12.32;;
40827;SDS011;26549;50.918;5.338;2022-08-19T00:53:11;14.90;;;12.52;;
40827;SDS011;26549;50.918;5.338;2022-08-19T00:55:40;21.25;;;13.75;;
40827;SDS011;26549;50.918;5.338;2022-08-19T00:58:11;16.20;;;13.02;;
40827;SDS011;26549;50.918;5.338;2022-08-19T01:00:42;16.98;;;14.25;;
40827;SDS011;26549;50.918;5.338;2022-08-19T01:05:38;15.10;;;13.50;;
40827;SDS011;26549;50.918;5.338;2022-08-19T01:08:06;18.20;;;13.80;;
40827;SDS011;26549;50.918;5.338;2022-08-19T01:10:39;15.82;;;14.00;;
40827;SDS011;26549;50.918;5.338;2022-08-19T01:13:08;14.65;;;13.02;;
40827;SDS011;26549;50.918;5.338;2022-08-19T01:16:18;14.05;;;12.55;;
40827;SDS011;26549;50.918;5.338;2022-08-19T01:18:27;17.65;;;12.95;;
40827;SDS011;26549;50.918;5.338;2022-08-19T01:20:58;16.95;;;13.73;;
40827;SDS011;26549;50.918;5.338;2022-08-19T01:23:30;15.38;;;13.18;;
40827;SDS011;26549;50.918;5.338;2022-08-19T01:26:14;18.33;;;14.35;;
40827;SDS011;26549;50.918;5.338;2022-08-19T01:28:43;17.35;;;13.43;;
40827;SDS011;26549;50.918;5.338;2022-08-19T01:31:13;17.20;;;13.80;;
40827;SDS011;26549;50.918;5.338;2022-08-19T01:33:43;18.42;;;15.45;;
40827;SDS011;26549;50.918;5.338;2022-08-19T01:36:10;18.38;;;14.55;;
40827;SDS011;26549;50.918;5.338;2022-08-19T01:38:39;19.05;;;15.00;;
40827;SDS011;26549;50.918;5.338;2022-08-19T01:41:07;18.05;;;14.73;;
40827;SDS011;26549;50.918;5.338;2022-08-19T01:43:35;22.85;;;15.25;;
40827;SDS011;26549;50.918;5.338;2022-08-19T01:46:02;17.65;;;14.23;;
40827;SDS011;26549;50.918;5.338;2022-08-19T01:48:32;20.35;;;13.52;;
40827;SDS011;26549;50.918;5.338;2022-08-19T01:51:03;19.40;;;15.38;;
40827;SDS011;26549;50.918;5.338;2022-08-19T01:53:29;18.27;;;15.07;;
40827;SDS011;26549;50.918;5.338;2022-08-19T01:55:55;21.30;;;16.20;;
40827;SDS011;26549;50.918;5.338;2022-08-19T01:58:22;21.20;;;14.65;;
40827;SDS011;26549;50.918;5.338;2022-08-19T02:00:55;19.83;;;14.65;;
40827;SDS011;26549;50.918;5.338;2022-08-19T02:03:22;16.48;;;13.93;;
40827;SDS011;26549;50.918;5.338;2022-08-19T02:05:48;19.13;;;15.80;;
40827;SDS011;26549;50.918;5.338;2022-08-19T02:08:18;20.42;;;15.98;;
40827;SDS011;26549;50.918;5.338;2022-08-19T02:10:44;20.15;;;15.55;;
40827;SDS011;26549;50.918;5.338;2022-08-19T02:13:10;17.95;;;15.70;;
40827;SDS011;26549;50.918;5.338;2022-08-19T02:15:39;19.25;;;15.30;;
40827;SDS011;26549;50.918;5.338;2022-08-19T02:18:06;21.60;;;16.15;;
40827;SDS011;26549;50.918;5.338;2022-08-19T02:20:32;25.35;;;17.73;;
40827;SDS011;26549;50.918;5.338;2022-08-19T02:22:58;23.67;;;15.18;;
40827;SDS011;26549;50.918;5.338;2022-08-19T02:25:25;22.60;;;16.75;;
40827;SDS011;26549;50.918;5.338;2022-08-19T02:27:50;19.55;;;16.55;;
40827;SDS011;26549;50.918;5.338;2022-08-19T02:30:16;22.33;;;15.60;;
40827;SDS011;26549;50.918;5.338;2022-08-19T02:32:44;23.60;;;15.88;;
40827;SDS011;26549;50.918;5.338;2022-08-19T02:35:09;24.48;;;17.20;;
40827;SDS011;26549;50.918;5.338;2022-08-19T02:37:36;22.05;;;16.60;;
40827;SDS011;26549;50.918;5.338;2022-08-19T02:40:20;22.63;;;16.20;;
40827;SDS011;26549;50.918;5.338;2022-08-19T02:42:46;22.25;;;17.23;;
40827;SDS011;26549;50.918;5.338;2022-08-19T02:45:12;22.98;;;18.02;;
40827;SDS011;26549;50.918;5.338;2022-08-19T02:47:38;26.13;;;18.27;;
40827;SDS011;26549;50.918;5.338;2022-08-19T02:50:05;26.27;;;18.65;;
40827;SDS011;26549;50.918;5.338;2022-08-19T02:52:32;26.23;;;19.40;;
40827;SDS011;26549;50.918;5.338;2022-08-19T02:54:59;26.60;;;18.77;;
40827;SDS011;26549;50.918;5.338;2022-08-19T02:57:26;28.55;;;20.38;;
40827;SDS011;26549;50.918;5.338;2022-08-19T02:59:52;29.08;;;20.48;;
40827;SDS011;26549;50.918;5.338;2022-08-19T03:02:18;28.00;;;20.50;;
40827;SDS011;26549;50.918;5.338;2022-08-19T03:04:44;28.10;;;20.60;;
40827;SDS011;26549;50.918;5.338;2022-08-19T03:07:14;33.50;;;22.23;;
40827;SDS011;26549;50.918;5.338;2022-08-19T03:09:41;30.00;;;21.15;;
40827;SDS011;26549;50.918;5.338;2022-08-19T03:12:07;27.55;;;21.33;;
40827;SDS011;26549;50.918;5.338;2022-08-19T03:14:34;29.50;;;20.90;;
40827;SDS011;26549;50.918;5.338;2022-08-19T03:17:00;29.15;;;20.85;;
40827;SDS011;26549;50.918;5.338;2022-08-19T03:19:26;32.95;;;22.42;;
40827;SDS011;26549;50.918;5.338;2022-08-19T03:21:53;28.75;;;20.90;;
40827;SDS011;26549;50.918;5.338;2022-08-19T03:24:20;28.58;;;20.73;;
40827;SDS011;26549;50.918;5.338;2022-08-19T03:26:51;32.22;;;21.65;;
40827;SDS011;26549;50.918;5.338;2022-08-19T03:29:22;32.33;;;21.30;;
40827;SDS011;26549;50.918;5.338;2022-08-19T03:31:48;31.88;;;22.08;;
40827;SDS011;26549;50.918;5.338;2022-08-19T03:34:26;33.65;;;22.80;;
40827;SDS011;26549;50.918;5.338;2022-08-19T03:36:55;33.42;;;23.08;;
40827;SDS011;26549;50.918;5.338;2022-08-19T03:39:23;33.40;;;21.95;;
40827;SDS011;26549;50.918;5.338;2022-08-19T03:41:51;36.38;;;23.27;;
40827;SDS011;26549;50.918;5.338;2022-08-19T03:44:21;32.47;;;22.13;;
40827;SDS011;26549;50.918;5.338;2022-08-19T03:46:49;32.88;;;23.00;;
40827;SDS011;26549;50.918;5.338;2022-08-19T03:49:17;34.47;;;23.67;;
40827;SDS011;26549;50.918;5.338;2022-08-19T03:51:44;35.58;;;23.35;;
40827;SDS011;26549;50.918;5.338;2022-08-19T03:54:12;32.88;;;22.80;;
40827;SDS011;26549;50.918;5.338;2022-08-19T03:56:40;35.47;;;22.98;;
40827;SDS011;26549;50.918;5.338;2022-08-19T03:59:10;34.25;;;23.30;;
40827;SDS011;26549;50.918;5.338;2022-08-19T04:01:38;33.53;;;23.52;;
40827;SDS011;26549;50.918;5.338;2022-08-19T04:04:04;34.33;;;23.42;;
40827;SDS011;26549;50.918;5.338;2022-08-19T04:06:32;35.80;;;23.45;;
40827;SDS011;26549;50.918;5.338;2022-08-19T04:09:00;38.08;;;23.58;;
40827;SDS011;26549;50.918;5.338;2022-08-19T04:11:29;34.78;;;23.63;;
40827;SDS011;26549;50.918;5.338;2022-08-19T04:14:12;37.63;;;23.95;;
40827;SDS011;26549;50.918;5.338;2022-08-19T04:16:40;39.15;;;23.77;;
40827;SDS011;26549;50.918;5.338;2022-08-19T04:19:07;36.45;;;26.13;;
40827;SDS011;26549;50.918;5.338;2022-08-19T04:21:34;39.92;;;24.33;;
40827;SDS011;26549;50.918;5.338;2022-08-19T04:24:00;39.90;;;25.52;;
40827;SDS011;26549;50.918;5.338;2022-08-19T04:26:28;38.00;;;25.00;;
40827;SDS011;26549;50.918;5.338;2022-08-19T04:28:59;38.35;;;24.65;;
40827;SDS011;26549;50.918;5.338;2022-08-19T04:31:27;38.33;;;25.15;;
40827;SDS011;26549;50.918;5.338;2022-08-19T04:33:55;36.30;;;24.83;;
40827;SDS011;26549;50.918;5.338;2022-08-19T04:36:26;39.28;;;26.23;;
40827;SDS011;26549;50.918;5.338;2022-08-19T04:38:55;37.33;;;24.83;;
40827;SDS011;26549;50.918;5.338;2022-08-19T04:41:22;39.53;;;24.27;;
40827;SDS011;26549;50.918;5.338;2022-08-19T04:44:06;33.63;;;23.13;;
40827;SDS011;26549;50.918;5.338;2022-08-19T04:46:32;36.88;;;24.73;;
40827;SDS011;26549;50.918;5.338;2022-08-19T04:49:00;37.33;;;24.05;;
40827;SDS011;26549;50.918;5.338;2022-08-19T04:51:26;42.30;;;24.63;;
40827;SDS011;26549;50.918;5.338;2022-08-19T04:53:52;38.28;;;24.13;;
40827;SDS011;26549;50.918;5.338;2022-08-19T04:56:19;38.65;;;23.85;;
40827;SDS011;26549;50.918;5.338;2022-08-19T04:58:51;38.78;;;24.77;;
40827;SDS011;26549;50.918;5.338;2022-08-19T05:01:20;43.75;;;24.38;;
40827;SDS011;26549;50.918;5.338;2022-08-19T05:03:48;35.35;;;23.33;;
40827;SDS011;26549;50.918;5.338;2022-08-19T05:06:15;38.78;;;23.45;;
40827;SDS011;26549;50.918;5.338;2022-08-19T05:08:43;39.22;;;23.83;;
40827;SDS011;26549;50.918;5.338;2022-08-19T05:11:11;38.58;;;24.38;;
40827;SDS011;26549;50.918;5.338;2022-08-19T05:13:42;39.75;;;24.48;;
40827;SDS011;26549;50.918;5.338;2022-08-19T05:16:09;40.63;;;25.13;;
40827;SDS011;26549;50.918;5.338;2022-08-19T05:18:35;41.67;;;25.15;;
40827;SDS011;26549;50.918;5.338;2022-08-19T05:21:20;41.87;;;26.10;;
40827;SDS011;26549;50.918;5.338;2022-08-19T05:24:05;40.92;;;25.85;;
40827;SDS011;26549;50.918;5.338;2022-08-19T05:26:36;38.13;;;26.13;;
40827;SDS011;26549;50.918;5.338;2022-08-19T05:29:07;38.67;;;25.23;;
40827;SDS011;26549;50.918;5.338;2022-08-19T05:31:33;39.00;;;25.15;;
40827;SDS011;26549;50.918;5.338;2022-08-19T05:34:00;46.20;;;26.50;;
40827;SDS011;26549;50.918;5.338;2022-08-19T05:36:27;43.72;;;27.77;;
40827;SDS011;26549;50.918;5.338;2022-08-19T05:38:54;41.13;;;24.83;;
40827;SDS011;26549;50.918;5.338;2022-08-19T05:41:21;37.83;;;24.40;;
40827;SDS011;26549;50.918;5.338;2022-08-19T05:43:58;41.47;;;27.33;;
40827;SDS011;26549;50.918;5.338;2022-08-19T05:46:27;36.13;;;25.15;;
40827;SDS011;26549;50.918;5.338;2022-08-19T05:48:54;38.85;;;25.92;;
40827;SDS011;26549;50.918;5.338;2022-08-19T05:51:22;36.35;;;24.15;;
40827;SDS011;26549;50.918;5.338;2022-08-19T05:53:48;33.67;;;22.73;;
40827;SDS011;26549;50.918;5.338;2022-08-19T05:56:15;32.78;;;23.25;;
40827;SDS011;26549;50.918;5.338;2022-08-19T05:58:42;35.13;;;22.58;;
40827;SDS011;26549;50.918;5.338;2022-08-19T06:01:14;32.50;;;21.67;;
40827;SDS011;26549;50.918;5.338;2022-08-19T06:03:42;32.78;;;22.00;;
40827;SDS011;26549;50.918;5.338;2022-08-19T06:06:09;28.25;;;20.02;;
40827;SDS011;26549;50.918;5.338;2022-08-19T06:08:36;32.60;;;21.27;;
40827;SDS011;26549;50.918;5.338;2022-08-19T06:13:59;30.98;;;20.13;;
40827;SDS011;26549;50.918;5.338;2022-08-19T06:16:27;27.10;;;19.40;;
40827;SDS011;26549;50.918;5.338;2022-08-19T06:18:53;32.42;;;20.38;;
40827;SDS011;26549;50.918;5.338;2022-08-19T06:21:23;26.42;;;19.55;;
40827;SDS011;26549;50.918;5.338;2022-08-19T06:23:52;27.77;;;18.67;;
40827;SDS011;26549;50.918;5.338;2022-08-19T06:26:19;24.73;;;17.27;;
40827;SDS011;26549;50.918;5.338;2022-08-19T06:28:46;25.42;;;17.27;;
40827;SDS011;26549;50.918;5.338;2022-08-19T06:31:17;27.05;;;17.70;;
40827;SDS011;26549;50.918;5.338;2022-08-19T06:33:46;27.45;;;17.88;;
40827;SDS011;26549;50.918;5.338;2022-08-19T06:39:11;23.92;;;15.38;;
40827;SDS011;26549;50.918;5.338;2022-08-19T06:41:41;25.20;;;16.85;;
40827;SDS011;26549;50.918;5.338;2022-08-19T06:44:09;25.63;;;16.60;;
40827;SDS011;26549;50.918;5.338;2022-08-19T06:46:36;25.33;;;15.73;;
40827;SDS011;26549;50.918;5.338;2022-08-19T06:49:03;24.67;;;16.45;;
40827;SDS011;26549;50.918;5.338;2022-08-19T06:51:29;28.90;;;16.80;;
40827;SDS011;26549;50.918;5.338;2022-08-19T06:53:56;26.60;;;14.93;;
40827;SDS011;26549;50.918;5.338;2022-08-19T06:56:25;28.05;;;17.50;;
40827;SDS011;26549;50.918;5.338;2022-08-19T06:59:06;25.13;;;14.88;;
40827;SDS011;26549;50.918;5.338;2022-08-19T07:01:35;27.57;;;15.87;;
40827;SDS011;26549;50.918;5.338;2022-08-19T07:04:05;25.70;;;15.60;;
40827;SDS011;26549;50.918;5.338;2022-08-19T07:06:31;24.20;;;14.40;;
40827;SDS011;26549;50.918;5.338;2022-08-19T07:08:57;24.20;;;13.23;;
40827;SDS011;26549;50.918;5.338;2022-08-19T07:11:23;24.98;;;12.68;;
40827;SDS011;26549;50.918;5.338;2022-08-19T07:13:49;22.00;;;13.23;;
40827;SDS011;26549;50.918;5.338;2022-08-19T07:16:17;23.33;;;12.35;;
40827;SDS011;26549;50.918;5.338;2022-08-19T07:18:45;21.52;;;12.88;;
40827;SDS011;26549;50.918;5.338;2022-08-19T07:21:16;20.80;;;12.98;;
40827;SDS011;26549;50.918;5.338;2022-08-19T07:23:45;21.52;;;11.23;;
40827;SDS011;26549;50.918;5.338;2022-08-19T07:26:16;22.45;;;12.93;;
40827;SDS011;26549;50.918;5.338;2022-08-19T07:28:45;21.15;;;12.40;;
40827;SDS011;26549;50.918;5.338;2022-08-19T07:31:12;20.90;;;13.10;;
40827;SDS011;26549;50.918;5.338;2022-08-19T07:33:40;26.02;;;14.32;;
40827;SDS011;26549;50.918;5.338;2022-08-19T07:36:08;21.40;;;12.30;;
40827;SDS011;26549;50.918;5.338;2022-08-19T07:38:38;19.45;;;12.52;;
40827;SDS011;26549;50.918;5.338;2022-08-19T07:41:06;17.45;;;12.20;;
40827;SDS011;26549;50.918;5.338;2022-08-19T07:43:37;19.38;;;12.00;;
40827;SDS011;26549;50.918;5.338;2022-08-19T07:46:04;16.98;;;11.73;;
40827;SDS011;26549;50.918;5.338;2022-08-19T07:48:30;18.55;;;11.75;;
40827;SDS011;26549;50.918;5.338;2022-08-19T07:50:58;20.17;;;11.45;;
40827;SDS011;26549;50.918;5.338;2022-08-19T07:53:29;21.23;;;12.30;;
40827;SDS011;26549;50.918;5.338;2022-08-19T07:55:56;17.05;;;12.02;;
40827;SDS011;26549;50.918;5.338;2022-08-19T07:58:29;17.13;;;11.32;;
40827;SDS011;26549;50.918;5.338;2022-08-19T08:00:56;21.42;;;10.48;;
40827;SDS011;26549;50.918;5.338;2022-08-19T08:03:22;18.80;;;11.23;;
40827;SDS011;26549;50.918;5.338;2022-08-19T08:06:08;17.92;;;11.65;;
40827;SDS011;26549;50.918;5.338;2022-08-19T08:08:52;17.23;;;10.47;;
40827;SDS011;26549;50.918;5.338;2022-08-19T08:11:37;15.85;;;9.52;;
40827;SDS011;26549;50.918;5.338;2022-08-19T08:14:04;15.27;;;9.45;;
40827;SDS011;26549;50.918;5.338;2022-08-19T08:16:33;18.08;;;9.70;;
40827;SDS011;26549;50.918;5.338;2022-08-19T08:19:00;12.38;;;9.43;;
40827;SDS011;26549;50.918;5.338;2022-08-19T08:21:26;12.52;;;8.88;;
40827;SDS011;26549;50.918;5.338;2022-08-19T08:23:52;15.52;;;9.75;;
40827;SDS011;26549;50.918;5.338;2022-08-19T08:26:20;12.93;;;9.35;;
40827;SDS011;26549;50.918;5.338;2022-08-19T08:28:46;12.77;;;8.35;;
40827;SDS011;26549;50.918;5.338;2022-08-19T08:31:13;13.77;;;8.93;;
40827;SDS011;26549;50.918;5.338;2022-08-19T08:33:39;11.30;;;8.40;;
40827;SDS011;26549;50.918;5.338;2022-08-19T08:36:09;15.40;;;8.38;;
40827;SDS011;26549;50.918;5.338;2022-08-19T08:38:44;16.45;;;9.40;;
40827;SDS011;26549;50.918;5.338;2022-08-19T08:41:47;9.30;;;7.50;;
40827;SDS011;26549;50.918;5.338;2022-08-19T08:44:06;14.35;;;8.27;;
40827;SDS011;26549;50.918;5.338;2022-08-19T08:46:41;12.38;;;8.52;;
40827;SDS011;26549;50.918;5.338;2022-08-19T08:49:33;13.38;;;8.43;;
40827;SDS011;26549;50.918;5.338;2022-08-19T08:52:20;14.45;;;9.00;;
40827;SDS011;26549;50.918;5.338;2022-08-19T08:54:52;12.55;;;7.40;;
40827;SDS011;26549;50.918;5.338;2022-08-19T08:57:26;13.68;;;8.10;;
40827;SDS011;26549;50.918;5.338;2022-08-19T08:59:52;11.85;;;7.95;;
40827;SDS011;26549;50.918;5.338;2022-08-19T09:02:22;9.75;;;6.35;;
40827;SDS011;26549;50.918;5.338;2022-08-19T09:04:48;11.02;;;7.15;;
40827;SDS011;26549;50.918;5.338;2022-08-19T09:07:39;8.88;;;6.97;;
40827;SDS011;26549;50.918;5.338;2022-08-19T09:10:43;11.50;;;6.88;;
40827;SDS011;26549;50.918;5.338;2022-08-19T09:16:05;9.30;;;6.13;;
40827;SDS011;26549;50.918;5.338;2022-08-19T09:18:44;10.23;;;6.88;;
40827;SDS011;26549;50.918;5.338;2022-08-19T09:21:12;11.13;;;6.78;;
40827;SDS011;26549;50.918;5.338;2022-08-19T09:23:40;10.73;;;6.53;;
40827;SDS011;26549;50.918;5.338;2022-08-19T09:26:10;9.38;;;6.53;;
40827;SDS011;26549;50.918;5.338;2022-08-19T09:28:42;10.82;;;6.15;;
40827;SDS011;26549;50.918;5.338;2022-08-19T09:31:10;10.60;;;6.13;;
40827;SDS011;26549;50.918;5.338;2022-08-19T09:33:37;14.48;;;6.88;;
40827;SDS011;26549;50.918;5.338;2022-08-19T09:36:06;9.63;;;6.00;;
40827;SDS011;26549;50.918;5.338;2022-08-19T09:38:35;10.68;;;6.20;;
40827;SDS011;26549;50.918;5.338;2022-08-19T09:41:05;8.90;;;5.72;;
40827;SDS011;26549;50.918;5.338;2022-08-19T09:43:33;9.30;;;5.47;;
40827;SDS011;26549;50.918;5.338;2022-08-19T09:46:04;10.15;;;4.30;;
40827;SDS011;26549;50.918;5.338;2022-08-19T09:48:31;8.65;;;4.43;;
40827;SDS011;26549;50.918;5.338;2022-08-19T09:51:13;7.63;;;4.60;;
40827;SDS011;26549;50.918;5.338;2022-08-19T09:53:41;6.97;;;3.83;;
40827;SDS011;26549;50.918;5.338;2022-08-19T09:56:08;6.95;;;3.97;;
40827;SDS011;26549;50.918;5.338;2022-08-19T09:58:35;5.65;;;3.83;;
40827;SDS011;26549;50.918;5.338;2022-08-19T10:01:01;6.55;;;4.57;;
40827;SDS011;26549;50.918;5.338;2022-08-19T10:03:29;6.55;;;3.92;;
40827;SDS011;26549;50.918;5.338;2022-08-19T10:05:58;4.88;;;3.40;;
40827;SDS011;26549;50.918;5.338;2022-08-19T10:08:27;5.43;;;3.22;;
40827;SDS011;26549;50.918;5.338;2022-08-19T10:10:56;6.88;;;2.47;;
40827;SDS011;26549;50.918;5.338;2022-08-19T10:13:23;4.05;;;2.65;;
40827;SDS011;26549;50.918;5.338;2022-08-19T10:15:54;3.78;;;2.42;;
40827;SDS011;26549;50.918;5.338;2022-08-19T10:18:22;3.22;;;2.53;;
40827;SDS011;26549;50.918;5.338;2022-08-19T10:20:50;4.30;;;2.53;;
40827;SDS011;26549;50.918;5.338;2022-08-19T10:23:20;5.95;;;3.08;;
40827;SDS011;26549;50.918;5.338;2022-08-19T10:25:46;3.75;;;2.88;;
40827;SDS011;26549;50.918;5.338;2022-08-19T10:28:12;4.35;;;2.65;;
40827;SDS011;26549;50.918;5.338;2022-08-19T10:30:39;4.50;;;2.78;;
40827;SDS011;26549;50.918;5.338;2022-08-19T10:33:05;3.63;;;2.72;;
40827;SDS011;26549;50.918;5.338;2022-08-19T10:35:31;6.43;;;2.20;;
40827;SDS011;26549;50.918;5.338;2022-08-19T10:37:57;4.22;;;2.55;;
40827;SDS011;26549;50.918;5.338;2022-08-19T10:40:25;7.40;;;2.85;;
40827;SDS011;26549;50.918;5.338;2022-08-19T10:42:53;7.63;;;3.08;;
40827;SDS011;26549;50.918;5.338;2022-08-19T10:45:21;4.32;;;2.40;;
40827;SDS011;26549;50.918;5.338;2022-08-19T10:47:50;6.07;;;3.13;;
40827;SDS011;26549;50.918;5.338;2022-08-19T10:50:16;3.95;;;2.40;;
40827;SDS011;26549;50.918;5.338;2022-08-19T10:53:03;4.70;;;2.47;;
40827;SDS011;26549;50.918;5.338;2022-08-19T10:55:34;5.35;;;3.28;;
40827;SDS011;26549;50.918;5.338;2022-08-19T10:58:20;4.45;;;2.40;;
40827;SDS011;26549;50.918;5.338;2022-08-19T11:00:51;4.20;;;2.13;;
40827;SDS011;26549;50.918;5.338;2022-08-19T11:03:18;3.22;;;2.05;;
40827;SDS011;26549;50.918;5.338;2022-08-19T11:05:44;4.13;;;2.28;;
40827;SDS011;26549;50.918;5.338;2022-08-19T11:08:10;4.00;;;1.80;;
40827;SDS011;26549;50.918;5.338;2022-08-19T11:10:37;2.65;;;1.92;;
40827;SDS011;26549;50.918;5.338;2022-08-19T11:13:07;4.30;;;2.13;;
40827;SDS011;26549;50.918;5.338;2022-08-19T11:15:33;3.25;;;2.00;;
40827;SDS011;26549;50.918;5.338;2022-08-19T11:18:00;3.92;;;2.75;;
40827;SDS011;26549;50.918;5.338;2022-08-19T11:20:27;4.90;;;2.30;;
40827;SDS011;26549;50.918;5.338;2022-08-19T11:22:54;4.57;;;1.95;;
40827;SDS011;26549;50.918;5.338;2022-08-19T11:25:20;3.60;;;2.50;;
40827;SDS011;26549;50.918;5.338;2022-08-19T11:27:46;5.18;;;3.42;;
40827;SDS011;26549;50.918;5.338;2022-08-19T11:30:16;6.18;;;2.15;;
40827;SDS011;26549;50.918;5.338;2022-08-19T11:32:41;6.53;;;2.42;;
40827;SDS011;26549;50.918;5.338;2022-08-19T11:35:07;3.60;;;2.47;;
40827;SDS011;26549;50.918;5.338;2022-08-19T11:37:33;3.53;;;2.58;;
40827;SDS011;26549;50.918;5.338;2022-08-19T11:40:03;3.90;;;2.97;;
40827;SDS011;26549;50.918;5.338;2022-08-19T11:42:30;3.35;;;2.33;;
40827;SDS011;26549;50.918;5.338;2022-08-19T11:45:14;3.38;;;2.63;;
40827;SDS011;26549;50.918;5.338;2022-08-19T11:47:39;3.30;;;2.53;;
40827;SDS011;26549;50.918;5.338;2022-08-19T11:50:05;4.35;;;2.38;;
40827;SDS011;26549;50.918;5.338;2022-08-19T11:52:31;4.13;;;2.30;;
40827;SDS011;26549;50.918;5.338;2022-08-19T11:54:57;5.32;;;2.30;;
40827;SDS011;26549;50.918;5.338;2022-08-19T11:57:23;4.10;;;1.80;;
40827;SDS011;26549;50.918;5.338;2022-08-19T11:59:51;3.20;;;1.88;;
40827;SDS011;26549;50.918;5.338;2022-08-19T12:02:17;2.50;;;1.98;;
40827;SDS011;26549;50.918;5.338;2022-08-19T12:04:44;4.38;;;2.00;;
40827;SDS011;26549;50.918;5.338;2022-08-19T12:07:10;5.82;;;2.47;;
40827;SDS011;26549;50.918;5.338;2022-08-19T12:09:36;3.65;;;1.85;;
40827;SDS011;26549;50.918;5.338;2022-08-19T12:12:04;3.53;;;2.30;;
40827;SDS011;26549;50.918;5.338;2022-08-19T12:14:30;3.22;;;2.38;;
40827;SDS011;26549;50.918;5.338;2022-08-19T12:16:57;3.40;;;2.13;;
40827;SDS011;26549;50.918;5.338;2022-08-19T12:19:23;5.00;;;2.53;;
40827;SDS011;26549;50.918;5.338;2022-08-19T12:21:49;4.30;;;2.08;;
40827;SDS011;26549;50.918;5.338;2022-08-19T12:24:19;7.32;;;2.67;;
40827;SDS011;26549;50.918;5.338;2022-08-19T12:26:48;3.60;;;2.90;;
40827;SDS011;26549;50.918;5.338;2022-08-19T12:29:14;5.25;;;2.25;;
40827;SDS011;26549;50.918;5.338;2022-08-19T12:31:40;5.18;;;2.30;;
40827;SDS011;26549;50.918;5.338;2022-08-19T12:34:05;3.38;;;2.05;;
40827;SDS011;26549;50.918;5.338;2022-08-19T12:36:32;5.00;;;2.20;;
40827;SDS011;26549;50.918;5.338;2022-08-19T12:38:58;3.95;;;2.35;;
40827;SDS011;26549;50.918;5.338;2022-08-19T12:41:25;6.25;;;2.72;;
40827;SDS011;26549;50.918;5.338;2022-08-19T12:43:51;5.03;;;1.88;;
40827;SDS011;26549;50.918;5.338;2022-08-19T12:46:17;3.63;;;1.80;;
40827;SDS011;26549;50.918;5.338;2022-08-19T12:48:44;3.40;;;1.80;;
40827;SDS011;26549;50.918;5.338;2022-08-19T12:51:12;6.28;;;2.15;;
40827;SDS011;26549;50.918;5.338;2022-08-19T12:53:40;2.42;;;1.75;;
40827;SDS011;26549;50.918;5.338;2022-08-19T12:56:07;2.50;;;1.65;;
40827;SDS011;26549;50.918;5.338;2022-08-19T12:58:33;3.10;;;1.80;;
40827;SDS011;26549;50.918;5.338;2022-08-19T13:01:05;3.38;;;1.70;;
40827;SDS011;26549;50.918;5.338;2022-08-19T13:03:32;4.53;;;2.42;;
40827;SDS011;26549;50.918;5.338;2022-08-19T13:05:58;4.60;;;2.22;;
40827;SDS011;26549;50.918;5.338;2022-08-19T13:08:24;3.75;;;2.10;;
40827;SDS011;26549;50.918;5.338;2022-08-19T13:10:49;4.03;;;2.25;;
40827;SDS011;26549;50.918;5.338;2022-08-19T13:13:15;3.13;;;2.20;;
40827;SDS011;26549;50.918;5.338;2022-08-19T13:15:42;2.92;;;1.88;;
40827;SDS011;26549;50.918;5.338;2022-08-19T13:18:10;1.95;;;1.55;;
40827;SDS011;26549;50.918;5.338;2022-08-19T13:20:37;3.70;;;1.90;;
40827;SDS011;26549;50.918;5.338;2022-08-19T13:23:05;2.97;;;1.85;;
40827;SDS011;26549;50.918;5.338;2022-08-19T13:25:32;3.05;;;1.17;;
40827;SDS011;26549;50.918;5.338;2022-08-19T13:27:58;3.50;;;1.52;;
40827;SDS011;26549;50.918;5.338;2022-08-19T13:30:24;3.03;;;1.77;;
40827;SDS011;26549;50.918;5.338;2022-08-19T13:33:09;3.72;;;1.55;;
40827;SDS011;26549;50.918;5.338;2022-08-19T13:35:42;3.65;;;1.40;;
40827;SDS011;26549;50.918;5.338;2022-08-19T13:38:14;2.83;;;1.70;;
40827;SDS011;26549;50.918;5.338;2022-08-19T13:40:42;2.90;;;1.60;;
40827;SDS011;26549;50.918;5.338;2022-08-19T13:43:08;2.47;;;1.42;;
40827;SDS011;26549;50.918;5.338;2022-08-19T13:45:34;3.08;;;1.63;;
40827;SDS011;26549;50.918;5.338;2022-08-19T13:48:01;5.18;;;1.70;;
40827;SDS011;26549;50.918;5.338;2022-08-19T13:50:35;1.92;;;1.33;;
40827;SDS011;26549;50.918;5.338;2022-08-19T13:53:11;1.52;;;1.27;;
40827;SDS011;26549;50.918;5.338;2022-08-19T13:55:38;1.55;;;1.13;;
40827;SDS011;26549;50.918;5.338;2022-08-19T13:58:05;2.45;;;1.35;;
40827;SDS011;26549;50.918;5.338;2022-08-19T14:00:32;2.65;;;1.40;;
40827;SDS011;26549;50.918;5.338;2022-08-19T14:03:00;3.03;;;1.60;;
40827;SDS011;26549;50.918;5.338;2022-08-19T14:05:27;2.00;;;1.55;;
40827;SDS011;26549;50.918;5.338;2022-08-19T14:07:55;2.88;;;1.65;;
40827;SDS011;26549;50.918;5.338;2022-08-19T14:10:23;1.70;;;1.20;;
40827;SDS011;26549;50.918;5.338;2022-08-19T14:12:54;2.30;;;1.63;;
40827;SDS011;26549;50.918;5.338;2022-08-19T14:15:21;4.93;;;1.42;;
40827;SDS011;26549;50.918;5.338;2022-08-19T14:17:48;2.40;;;1.60;;
40827;SDS011;26549;50.918;5.338;2022-08-19T14:20:15;2.17;;;1.55;;
40827;SDS011;26549;50.918;5.338;2022-08-19T14:22:41;4.70;;;1.35;;
40827;SDS011;26549;50.918;5.338;2022-08-19T14:25:09;1.80;;;1.17;;
40827;SDS011;26549;50.918;5.338;2022-08-19T14:27:38;1.75;;;1.25;;
40827;SDS011;26549;50.918;5.338;2022-08-19T14:30:06;1.92;;;1.30;;
40827;SDS011;26549;50.918;5.338;2022-08-19T14:32:33;1.52;;;1.42;;
40827;SDS011;26549;50.918;5.338;2022-08-19T14:35:00;2.65;;;1.67;;
40827;SDS011;26549;50.918;5.338;2022-08-19T14:37:26;2.22;;;1.50;;
40827;SDS011;26549;50.918;5.338;2022-08-19T14:39:52;4.00;;;1.90;;
40827;SDS011;26549;50.918;5.338;2022-08-19T14:42:18;2.05;;;1.50;;
40827;SDS011;26549;50.918;5.338;2022-08-19T14:44:44;3.83;;;1.40;;
40827;SDS011;26549;50.918;5.338;2022-08-19T14:47:10;3.00;;;1.15;;
40827;SDS011;26549;50.918;5.338;2022-08-19T14:49:36;1.88;;;1.65;;
40827;SDS011;26549;50.918;5.338;2022-08-19T14:52:02;2.35;;;1.70;;
40827;SDS011;26549;50.918;5.338;2022-08-19T14:54:29;3.88;;;1.73;;